createdAt,value
2023-01-13T00:01:25.410Z,99242.44
2023-01-13T00:03:53.521Z,99241.97
2023-01-13T00:06:23.258Z,99227.00
2023-01-13T00:08:51.865Z,99240.94
2023-01-13T00:11:36.835Z,99233.66
2023-01-13T00:14:04.720Z,99215.53
2023-01-13T00:16:33.182Z,99234.06
2023-01-13T00:19:00.773Z,99228.22
2023-01-13T00:21:28.731Z,99229.00
2023-01-13T00:23:56.751Z,99230.63
2023-01-13T00:26:26.799Z,99236.47
2023-01-13T00:29:00.653Z,99231.44
2023-01-13T00:31:30.065Z,99225.81
2023-01-13T00:33:59.805Z,99224.47
2023-01-13T00:36:28.018Z,99204.44
2023-01-13T00:38:55.722Z,99214.38
2023-01-13T00:41:25.695Z,99211.25
2023-01-13T00:43:53.320Z,99212.66
2023-01-13T00:46:22.376Z,99206.72
2023-01-13T00:48:50.215Z,99202.03
2023-01-13T00:51:20.909Z,99219.88
2023-01-13T00:53:50.987Z,99206.72
2023-01-13T00:56:34.156Z,99196.06
2023-01-13T00:59:05.960Z,99202.69
2023-01-13T01:01:33.755Z,99195.47
2023-01-13T01:04:01.303Z,99216.81
2023-01-13T01:06:29.531Z,99211.63
2023-01-13T01:08:57.507Z,99210.31
2023-01-13T01:11:27.792Z,99215.28
2023-01-13T01:13:58.071Z,99205.47
2023-01-13T01:16:27.679Z,99201.22
2023-01-13T01:18:56.393Z,99192.63
2023-01-13T01:21:25.640Z,99205.47
2023-01-13T01:23:53.914Z,99198.41
2023-01-13T01:26:24.000Z,99208.69
2023-01-13T01:28:52.353Z,99196.56
2023-01-13T01:31:23.992Z,99193.94
2023-01-13T01:33:51.784Z,99192.47
2023-01-13T01:36:21.999Z,99217.31
2023-01-13T01:38:50.013Z,99206.22
2023-01-13T01:41:20.809Z,99174.72
2023-01-13T01:43:59.761Z,99196.84
2023-01-13T01:46:32.629Z,99200.97
2023-01-13T01:49:25.745Z,99205.47
2023-01-13T01:51:53.190Z,99202.38
2023-01-13T01:54:35.939Z,99202.50
2023-01-13T01:57:04.467Z,99193.72
2023-01-13T01:59:33.074Z,99197.28
2023-01-13T02:02:01.036Z,99190.53
2023-01-13T02:04:34.787Z,99159.81
2023-01-13T02:07:04.256Z,99171.59
2023-01-13T02:09:33.404Z,99175.28
2023-01-13T02:12:19.529Z,99170.59
2023-01-13T02:14:47.715Z,99174.22
2023-01-13T02:17:24.962Z,99148.59
2023-01-13T02:19:58.643Z,99194.66
2023-01-13T02:22:46.621Z,99197.94
2023-01-13T02:25:47.500Z,99178.59
2023-01-13T02:28:31.676Z,99174.72
2023-01-13T02:31:33.659Z,99184.66
2023-01-13T02:34:38.229Z,99179.03
2023-01-13T02:37:15.052Z,99173.91
2023-01-13T02:39:54.586Z,99178.09
2023-01-13T02:42:51.332Z,99177.78
2023-01-13T02:45:32.802Z,99178.44
2023-01-13T02:48:05.306Z,99168.13
2023-01-13T02:50:48.087Z,99158.19
2023-01-13T02:53:21.624Z,99163.31
2023-01-13T02:55:53.779Z,99163.22
2023-01-13T02:58:26.611Z,99171.25
2023-01-13T03:00:54.524Z,99164.34
2023-01-13T03:03:22.089Z,99169.06
2023-01-13T03:05:54.018Z,99167.59
2023-01-13T03:08:43.455Z,99160.00
2023-01-13T03:11:14.211Z,99177.19
2023-01-13T03:13:42.010Z,99169.06
2023-01-13T03:16:38.659Z,99177.19
2023-01-13T03:19:21.982Z,99180.41
2023-01-13T03:21:59.754Z,99175.47
2023-01-13T03:24:39.273Z,99182.56
2023-01-13T03:27:12.302Z,99181.06
2023-01-13T03:30:01.242Z,99183.00
2023-01-13T03:32:41.393Z,99180.13
2023-01-13T03:35:14.876Z,99174.38
2023-01-13T03:37:47.136Z,99171.38
2023-01-13T03:40:39.382Z,99168.84
2023-01-13T03:43:30.094Z,99164.06
2023-01-13T03:46:03.802Z,99149.50
2023-01-13T03:48:35.553Z,99161.72
2023-01-13T03:51:07.343Z,99159.00
2023-01-13T03:53:43.347Z,99167.13
2023-01-13T03:56:21.674Z,99163.09
2023-01-13T03:58:52.903Z,99171.97
2023-01-13T04:01:29.300Z,99164.84
2023-01-13T04:04:12.021Z,99160.00
2023-01-13T04:06:42.877Z,99167.59
2023-01-13T04:09:23.233Z,99163.22
2023-01-13T04:12:02.355Z,99170.69
2023-01-13T04:14:30.755Z,99175.53
2023-01-13T04:16:58.558Z,99179.22
2023-01-13T04:19:26.237Z,99178.06
2023-01-13T04:21:53.711Z,99165.44
2023-01-13T04:24:21.135Z,99166.16
2023-01-13T04:26:48.707Z,99163.97
2023-01-13T04:29:16.375Z,99163.88
2023-01-13T04:31:44.246Z,99157.47
2023-01-13T04:34:11.898Z,99174.09
2023-01-13T04:36:39.392Z,99155.75
2023-01-13T04:39:06.984Z,99176.72
2023-01-13T04:41:54.529Z,99167.88
2023-01-13T04:44:21.935Z,99162.41
2023-01-13T04:46:49.363Z,99169.06
2023-01-13T04:49:16.895Z,99156.13
2023-01-13T04:51:44.394Z,99168.59
2023-01-13T04:54:11.973Z,99140.06
2023-01-13T04:56:39.627Z,99147.50
2023-01-13T04:59:07.224Z,99126.09
2023-01-13T05:01:34.900Z,99131.13
2023-01-13T05:04:02.385Z,99150.50
2023-01-13T05:06:30.481Z,99133.41
2023-01-13T05:08:57.932Z,99125.97
2023-01-13T05:11:43.634Z,99139.47
2023-01-13T05:14:29.420Z,99149.56
2023-01-13T05:17:03.847Z,99135.34
2023-01-13T05:19:36.645Z,99165.59
2023-01-13T05:22:22.306Z,99136.97
2023-01-13T05:25:08.714Z,99142.47
2023-01-13T05:27:36.527Z,99144.97
2023-01-13T05:30:04.781Z,99127.13
2023-01-13T05:32:32.329Z,99139.03
2023-01-13T05:34:59.823Z,99132.41
2023-01-13T05:37:28.044Z,99129.66
2023-01-13T05:40:13.775Z,99132.63
2023-01-13T05:42:59.899Z,99144.78
2023-01-13T05:45:27.580Z,99128.63
2023-01-13T05:47:55.157Z,99139.94
2023-01-13T05:50:22.624Z,99135.16
2023-01-13T05:52:50.219Z,99157.69
2023-01-13T05:55:17.710Z,99142.47
2023-01-13T05:57:45.344Z,99150.25
2023-01-13T06:00:13.289Z,99137.66
2023-01-13T06:02:40.876Z,99138.44
2023-01-13T06:05:08.988Z,99127.78
2023-01-13T06:07:36.452Z,99132.25
2023-01-13T06:10:04.760Z,99145.88
2023-01-13T06:12:32.374Z,99131.88
2023-01-13T06:14:59.766Z,99114.91
2023-01-13T06:17:27.328Z,99120.78
2023-01-13T06:19:54.803Z,99106.81
2023-01-13T06:22:25.597Z,99113.97
2023-01-13T06:24:54.689Z,99117.41
2023-01-13T06:27:23.495Z,99116.69
2023-01-13T06:29:51.424Z,99100.34
2023-01-13T06:32:26.052Z,99103.63
2023-01-13T06:34:59.717Z,99110.22
2023-01-13T06:37:28.577Z,99107.25
2023-01-13T06:39:59.847Z,99101.56
2023-01-13T06:42:48.656Z,99115.03
2023-01-13T06:45:16.337Z,99110.03
2023-01-13T06:47:44.413Z,99105.09
2023-01-13T06:50:11.967Z,99103.88
2023-01-13T06:52:39.375Z,99105.16
2023-01-13T06:55:07.181Z,99105.28
2023-01-13T06:57:34.679Z,99101.25
2023-01-13T07:00:02.234Z,99098.44
2023-01-13T07:02:31.819Z,99103.47
2023-01-13T07:04:59.266Z,99093.06
2023-01-13T07:07:27.935Z,99092.06
2023-01-13T07:09:55.575Z,99091.94
2023-01-13T07:12:22.993Z,99088.59
2023-01-13T07:15:08.798Z,99111.19
2023-01-13T07:17:36.299Z,99100.88
2023-01-13T07:20:03.978Z,99097.84
2023-01-13T07:22:31.616Z,99105.13
2023-01-13T07:24:59.092Z,99118.56
2023-01-13T07:27:26.579Z,99106.94
2023-01-13T07:29:54.071Z,99106.41
2023-01-13T07:32:21.609Z,99109.13
2023-01-13T07:34:49.168Z,99114.00
2023-01-13T07:37:16.702Z,99095.25
2023-01-13T07:39:45.483Z,99090.28
2023-01-13T07:42:31.464Z,99073.84
2023-01-13T07:44:59.057Z,99100.91
2023-01-13T07:47:26.618Z,99096.72
2023-01-13T07:49:54.075Z,99078.81
2023-01-13T07:52:21.533Z,99076.72
2023-01-13T07:54:50.029Z,99089.00
2023-01-13T07:57:17.564Z,99079.91
2023-01-13T07:59:45.091Z,99079.34
2023-01-13T08:02:13.596Z,99078.91
2023-01-13T08:04:41.465Z,99084.19
2023-01-13T08:07:09.004Z,99093.78
2023-01-13T08:09:36.416Z,99097.44
2023-01-13T08:12:22.817Z,99088.84
2023-01-13T08:14:51.175Z,99089.69
2023-01-13T08:17:20.431Z,99086.81
2023-01-13T08:19:48.184Z,99087.97
2023-01-13T08:22:15.704Z,99071.88
2023-01-13T08:24:43.283Z,99080.09
2023-01-13T08:27:10.841Z,99087.19
2023-01-13T08:29:38.409Z,99056.06
2023-01-13T08:32:06.502Z,99067.50
2023-01-13T08:34:34.127Z,99075.00
2023-01-13T08:37:01.628Z,99077.91
2023-01-13T08:39:30.601Z,99069.91
2023-01-13T08:41:59.175Z,99071.25
2023-01-13T08:44:28.949Z,99072.88
2023-01-13T08:46:57.051Z,99072.97
2023-01-13T08:49:25.876Z,99078.34
2023-01-13T08:51:54.243Z,99063.28
2023-01-13T08:54:22.087Z,99054.63
2023-01-13T08:56:49.658Z,99061.78
2023-01-13T08:59:19.824Z,99032.06
2023-01-13T09:01:47.495Z,99039.97
2023-01-13T09:04:21.553Z,99026.16
2023-01-13T09:06:50.605Z,99040.22
2023-01-13T09:09:18.541Z,99040.00
2023-01-13T09:12:08.725Z,99036.84
2023-01-13T09:14:38.746Z,99031.72
2023-01-13T09:17:07.660Z,99035.44
2023-01-13T09:19:35.655Z,99036.59
2023-01-13T09:22:03.629Z,99038.28
2023-01-13T09:24:31.619Z,99032.25
2023-01-13T09:26:59.164Z,99026.19
2023-01-13T09:29:26.671Z,99025.72
2023-01-13T09:31:54.209Z,99015.13
2023-01-13T09:34:39.958Z,99021.47
2023-01-13T09:37:08.210Z,99028.66
2023-01-13T09:39:36.591Z,99039.00
2023-01-13T09:42:57.610Z,99041.91
2023-01-13T09:45:51.624Z,99042.47
2023-01-13T09:48:25.017Z,99029.31
2023-01-13T09:51:04.956Z,99054.84
2023-01-13T09:53:40.160Z,99059.13
2023-01-13T09:56:11.536Z,99061.50
2023-01-13T09:58:39.123Z,99068.31
2023-01-13T10:01:30.763Z,99072.13
2023-01-13T10:04:02.902Z,99075.03
2023-01-13T10:06:30.538Z,99068.59
2023-01-13T10:08:58.262Z,99087.91
2023-01-13T10:11:51.123Z,99083.13
2023-01-13T10:14:27.608Z,99095.88
2023-01-13T10:17:32.248Z,99098.69
2023-01-13T10:20:33.817Z,99099.78
2023-01-13T10:23:21.255Z,99114.25
2023-01-13T10:25:58.159Z,99085.38
2023-01-13T10:28:26.804Z,99060.78
2023-01-13T10:30:54.418Z,99091.00
2023-01-13T10:33:28.292Z,99100.22
2023-01-13T10:36:00.306Z,99102.63
2023-01-13T10:38:48.555Z,99081.09
2023-01-13T10:41:16.018Z,99096.81
2023-01-13T10:43:44.895Z,99113.66
2023-01-13T10:46:17.381Z,99101.63
2023-01-13T10:49:26.514Z,99096.13
2023-01-13T10:51:54.256Z,99091.97
2023-01-13T10:54:24.653Z,99098.13
2023-01-13T10:57:25.209Z,99105.63
2023-01-13T10:59:53.825Z,99127.75
2023-01-13T11:02:31.707Z,99116.59
2023-01-13T11:05:10.407Z,99128.19
2023-01-13T11:07:46.392Z,99115.59
2023-01-13T11:10:17.267Z,99126.22
2023-01-13T11:12:53.799Z,99114.38
2023-01-13T11:15:28.989Z,99128.28
2023-01-13T11:18:05.318Z,99107.94
2023-01-13T11:20:37.256Z,99123.66
2023-01-13T11:23:51.167Z,99113.09
2023-01-13T11:26:29.759Z,99127.47
2023-01-13T11:29:09.759Z,99113.34
2023-01-13T11:31:43.423Z,99113.94
2023-01-13T11:34:37.268Z,99130.53
2023-01-13T11:37:15.018Z,99116.34
2023-01-13T11:39:58.173Z,99133.09
2023-01-13T11:42:43.804Z,99124.03
2023-01-13T11:45:44.311Z,99123.72
2023-01-13T11:48:20.173Z,99121.72
2023-01-13T11:50:54.333Z,99131.84
2023-01-13T11:53:27.720Z,99116.59
2023-01-13T11:55:55.190Z,99111.06
2023-01-13T11:58:50.279Z,99127.56
2023-01-13T12:01:37.263Z,99141.81
2023-01-13T12:04:18.776Z,99140.06
2023-01-13T12:06:49.561Z,99098.19
2023-01-13T12:09:49.103Z,99144.22
2023-01-13T12:12:40.051Z,99123.25
2023-01-13T12:15:19.911Z,99130.53
2023-01-13T12:18:11.996Z,99127.88
2023-01-13T12:21:10.380Z,99130.13
2023-01-13T12:23:41.268Z,99121.41
2023-01-13T12:26:12.681Z,99112.03
2023-01-13T12:29:03.374Z,99098.13
2023-01-13T12:31:34.298Z,99089.16
2023-01-13T12:34:19.518Z,99104.78
2023-01-13T12:37:06.419Z,99101.22
2023-01-13T12:39:42.761Z,99082.94
2023-01-13T12:42:50.895Z,99085.81
2023-01-13T12:45:30.925Z,99075.31
2023-01-13T12:51:13.823Z,99068.28
2023-01-13T12:53:55.392Z,99036.94
2023-01-13T12:56:45.958Z,99069.81
2023-01-13T12:59:20.351Z,99070.69
2023-01-13T13:01:53.387Z,99069.56
2023-01-13T13:04:42.101Z,99089.88
2023-01-13T13:07:17.404Z,99089.97
2023-01-13T13:09:56.173Z,99082.84
2023-01-13T13:13:02.738Z,99091.56
2023-01-13T13:15:35.977Z,99091.16
2023-01-13T13:18:21.971Z,99100.59
2023-01-13T13:21:09.292Z,99113.63
2023-01-13T13:23:44.784Z,99109.88
2023-01-13T13:26:36.496Z,99110.84
2023-01-13T13:29:49.370Z,99105.97
2023-01-13T13:32:40.444Z,99112.19
2023-01-13T13:35:43.785Z,99105.84
2023-01-13T13:38:49.965Z,99074.78
2023-01-13T13:41:41.655Z,99106.91
2023-01-13T13:45:09.971Z,99079.25
2023-01-13T13:48:07.459Z,99115.16
2023-01-13T13:50:52.394Z,99116.06
2023-01-13T13:53:24.918Z,99094.97
2023-01-13T13:56:06.765Z,99091.00
2023-01-13T13:58:38.463Z,99055.38
2023-01-13T14:01:10.262Z,99083.31
2023-01-13T14:03:40.193Z,99068.91
2023-01-13T14:06:09.387Z,99102.38
2023-01-13T14:08:39.774Z,99104.34
2023-01-13T14:11:28.716Z,99120.16
2023-01-13T14:14:07.842Z,99122.59
2023-01-13T14:16:38.534Z,99101.97
2023-01-13T14:19:06.055Z,99116.06
2023-01-13T14:21:34.031Z,99103.25
2023-01-13T14:24:14.570Z,99106.91
2023-01-13T14:26:42.715Z,99121.44
2023-01-13T14:29:16.996Z,99084.66
2023-01-13T14:31:45.755Z,99113.56
2023-01-13T14:34:32.266Z,99110.78
2023-01-13T14:37:03.209Z,99121.53
2023-01-13T14:39:41.070Z,99114.44
2023-01-13T14:42:17.509Z,99120.59
2023-01-13T14:44:47.803Z,99090.03
2023-01-13T14:47:23.234Z,99076.00
2023-01-13T14:50:02.838Z,99097.19
2023-01-13T14:52:38.801Z,99140.09
2023-01-13T14:55:10.205Z,99119.31
2023-01-13T14:57:47.444Z,99072.91
2023-01-13T15:00:15.131Z,99123.53
2023-01-13T15:02:53.775Z,99115.53
2023-01-13T15:05:24.108Z,99102.44
2023-01-13T15:08:01.229Z,99102.63
2023-01-13T15:10:44.494Z,99098.06
2023-01-13T15:13:41.232Z,99126.81
2023-01-13T15:16:33.253Z,99074.81
2023-01-13T15:19:02.702Z,99087.72
2023-01-13T15:21:30.575Z,99130.66
2023-01-13T15:23:58.226Z,99118.41
2023-01-13T15:26:28.773Z,99146.13
2023-01-13T15:28:58.360Z,99131.56
2023-01-13T15:31:26.939Z,99105.66
2023-01-13T15:33:54.827Z,99147.75
2023-01-13T15:36:31.339Z,99122.38
2023-01-13T15:39:00.476Z,99120.69
2023-01-13T15:41:48.421Z,99129.94
2023-01-13T15:44:35.807Z,99136.13
2023-01-13T15:47:07.710Z,99123.44
2023-01-13T15:49:39.861Z,99116.59
2023-01-13T15:52:26.809Z,99110.72
2023-01-13T15:54:57.075Z,99129.72
2023-01-13T15:57:28.251Z,99127.13
2023-01-13T16:00:01.554Z,99117.09
2023-01-13T16:02:34.902Z,99132.72
2023-01-13T16:05:02.504Z,99120.16
2023-01-13T16:07:31.008Z,99116.34
2023-01-13T16:10:02.049Z,99092.88
2023-01-13T16:12:31.756Z,99107.78
2023-01-13T16:15:02.362Z,99126.13
2023-01-13T16:17:31.862Z,99142.59
2023-01-13T16:19:59.565Z,99127.09
2023-01-13T16:22:27.256Z,99102.75
2023-01-13T16:24:54.854Z,99126.06
2023-01-13T16:27:25.575Z,99110.53
2023-01-13T16:29:53.707Z,99110.38
2023-01-13T16:32:21.444Z,99077.16
2023-01-13T16:34:52.171Z,99102.53
2023-01-13T16:37:26.620Z,99072.13
2023-01-13T16:39:54.719Z,99078.44
2023-01-13T16:42:22.899Z,99088.22
2023-01-13T16:44:53.577Z,99105.59
2023-01-13T16:47:23.632Z,99095.03
2023-01-13T16:49:51.960Z,99094.38
2023-01-13T16:52:19.729Z,99098.94
2023-01-13T16:54:47.510Z,99112.38
2023-01-13T16:57:16.324Z,99102.59
2023-01-13T16:59:44.420Z,99100.06
2023-01-13T17:02:15.456Z,99120.84
2023-01-13T17:04:43.961Z,99116.53
2023-01-13T17:07:17.940Z,99117.91
2023-01-13T17:09:46.159Z,99109.78
2023-01-13T17:12:13.802Z,99116.28
2023-01-13T17:14:45.437Z,99116.53
2023-01-13T17:17:31.064Z,99076.44
2023-01-13T17:22:58.409Z,99085.56
2023-01-13T17:25:36.719Z,99073.00
2023-01-13T17:28:21.122Z,99097.66
2023-01-13T17:30:52.427Z,99102.75
2023-01-13T17:33:20.427Z,99085.13
2023-01-13T17:35:48.264Z,99077.28
2023-01-13T17:38:16.604Z,99103.88
2023-01-13T17:40:45.785Z,99089.13
2023-01-13T17:43:13.878Z,99088.28
2023-01-13T17:51:38.737Z,99076.84
2023-01-13T17:54:15.661Z,99100.59
2023-01-13T17:56:44.186Z,99130.59
2023-01-13T17:59:19.465Z,99108.75
2023-01-13T18:01:47.358Z,99107.78
2023-01-13T18:04:21.600Z,99103.00
2023-01-13T18:06:52.263Z,99129.09
2023-01-13T18:09:20.360Z,99098.69
2023-01-13T18:11:51.312Z,99134.94
2023-01-13T18:14:19.381Z,99104.69
2023-01-13T18:16:47.005Z,99113.09
2023-01-13T18:19:33.284Z,99142.38
2023-01-13T18:22:18.932Z,99125.97
2023-01-13T18:25:04.863Z,99132.78
2023-01-13T18:27:38.444Z,99121.31
2023-01-13T18:30:07.046Z,99119.19
2023-01-13T18:32:35.127Z,99119.41
2023-01-13T18:35:07.074Z,99110.38
2023-01-13T18:37:39.037Z,99105.63
2023-01-13T18:40:08.184Z,99085.81
2023-01-13T18:42:55.203Z,99086.75
2023-01-13T18:45:29.228Z,99109.41
2023-01-13T18:47:58.967Z,99101.72
2023-01-13T18:50:27.427Z,99074.28
2023-01-13T18:52:55.566Z,99083.25
2023-01-13T18:55:25.907Z,99047.81
2023-01-13T18:57:59.559Z,99064.69
2023-01-13T19:00:27.705Z,99074.19
2023-01-13T19:05:36.033Z,99068.38
2023-01-13T19:08:05.025Z,99066.78
2023-01-13T19:10:33.093Z,99049.81
2023-01-13T19:13:01.987Z,99056.03
2023-01-13T19:15:29.934Z,99058.94
2023-01-13T19:17:57.449Z,99040.44
2023-01-13T19:20:25.113Z,99045.16
2023-01-13T19:22:54.706Z,99029.63
2023-01-13T19:25:23.181Z,99057.50
2023-01-13T19:27:50.714Z,99083.97
2023-01-13T19:30:18.670Z,99072.31
2023-01-13T19:32:46.394Z,99070.91
2023-01-13T19:35:17.851Z,99066.38
2023-01-13T19:37:45.987Z,99087.09
2023-01-13T19:40:14.350Z,99095.56
2023-01-13T19:43:02.621Z,99087.88
2023-01-13T19:45:32.552Z,99079.44
2023-01-13T19:48:05.851Z,99092.19
2023-01-13T19:50:38.955Z,99085.72
2023-01-13T19:53:08.090Z,99084.50
2023-01-13T19:55:35.894Z,99089.16
2023-01-13T19:58:04.078Z,99084.44
2023-01-13T20:00:31.695Z,99071.06
2023-01-13T20:03:03.698Z,99089.00
2023-01-13T20:05:31.327Z,99074.75
2023-01-13T20:07:58.865Z,99065.88
2023-01-13T20:10:26.515Z,99068.03
2023-01-13T20:12:54.102Z,99076.34
2023-01-13T20:15:21.780Z,99075.22
2023-01-13T20:17:49.357Z,99068.75
2023-01-13T20:20:18.837Z,99068.44
2023-01-13T20:22:46.960Z,99060.53
2023-01-13T20:25:17.182Z,99070.66
2023-01-13T20:27:47.084Z,99053.94
2023-01-13T20:30:15.872Z,99064.50
2023-01-13T20:32:44.375Z,99071.56
2023-01-13T20:35:12.393Z,99076.59
2023-01-13T20:37:41.945Z,99076.84
2023-01-13T20:40:14.211Z,99055.56
2023-01-13T20:42:47.677Z,99063.25
2023-01-13T20:45:21.830Z,99066.13
2023-01-13T20:47:49.766Z,99056.44
2023-01-13T20:50:18.093Z,99053.97
2023-01-13T20:52:46.285Z,99065.31
2023-01-13T20:55:14.752Z,99057.31
2023-01-13T20:57:43.432Z,99060.63
2023-01-13T21:00:11.952Z,99057.72
2023-01-13T21:02:41.093Z,99060.16
2023-01-13T21:05:09.676Z,99059.53
2023-01-13T21:07:37.191Z,99056.06
2023-01-13T21:10:05.483Z,99048.13
2023-01-13T21:12:51.557Z,99031.81
2023-01-13T21:15:22.512Z,99053.00
2023-01-13T21:18:10.691Z,99039.56
2023-01-13T21:20:38.915Z,99044.03
2023-01-13T21:23:07.302Z,99049.91
2023-01-13T21:25:37.859Z,99070.34
2023-01-13T21:28:11.711Z,99045.06
2023-01-13T21:30:40.208Z,99038.44
2023-01-13T21:33:07.827Z,99041.16
2023-01-13T21:35:39.339Z,99034.44
2023-01-13T21:38:07.377Z,99028.06
2023-01-13T21:40:35.279Z,99043.09
2023-01-13T21:43:21.589Z,99027.25
2023-01-13T21:46:08.067Z,99009.66
2023-01-13T21:48:35.836Z,99025.66
2023-01-13T21:51:03.409Z,99007.66
2023-01-13T21:53:31.204Z,99020.47
2023-01-13T21:55:58.901Z,99011.09
2023-01-13T21:58:27.651Z,99012.47
2023-01-13T22:00:55.714Z,99033.97
2023-01-13T22:03:23.609Z,99003.97
2023-01-13T22:05:55.977Z,99019.25
2023-01-13T22:08:23.643Z,99011.81
2023-01-13T22:11:00.548Z,99013.56
2023-01-13T22:13:48.016Z,98998.28
2023-01-13T22:16:16.429Z,99011.06
2023-01-13T22:18:44.285Z,98999.22
2023-01-13T22:21:11.769Z,98985.00
2023-01-13T22:23:39.439Z,98985.28
2023-01-13T22:26:08.599Z,98980.97
2023-01-13T22:28:43.480Z,98981.75
2023-01-13T22:31:12.929Z,98974.06
2023-01-13T22:33:41.659Z,98953.94
2023-01-13T22:36:11.410Z,98942.13
2023-01-13T22:38:39.196Z,98958.75
2023-01-13T22:41:09.499Z,98956.88
2023-01-13T22:43:38.315Z,98934.69
2023-01-13T22:46:07.749Z,98935.50
2023-01-13T22:48:35.471Z,98907.25
2023-01-13T22:51:15.335Z,98936.16
2023-01-13T22:53:43.656Z,98916.28
2023-01-13T22:56:18.291Z,98938.97
2023-01-13T22:58:46.425Z,98934.72
2023-01-13T23:01:16.891Z,98939.56
2023-01-13T23:03:47.893Z,98928.50
2023-01-13T23:06:18.419Z,98945.69
2023-01-13T23:08:46.685Z,98935.00
2023-01-13T23:11:16.423Z,98925.78
2023-01-13T23:13:44.222Z,98929.94
2023-01-13T23:16:24.225Z,98887.72
2023-01-13T23:18:51.911Z,98901.31
2023-01-13T23:21:22.782Z,98910.94
2023-01-13T23:23:51.016Z,98916.13
2023-01-13T23:26:18.966Z,98900.84
2023-01-13T23:28:46.826Z,98901.44
2023-01-13T23:31:22.671Z,98899.97
2023-01-13T23:33:50.245Z,98901.53
2023-01-13T23:36:24.000Z,98910.84
2023-01-13T23:38:52.926Z,98912.38
2023-01-13T23:41:23.884Z,98909.47
2023-01-13T23:43:56.348Z,98916.91
2023-01-13T23:46:24.957Z,98932.31
2023-01-13T23:48:53.223Z,98914.75
2023-01-13T23:51:25.557Z,98910.00
2023-01-13T23:53:53.267Z,98911.19
2023-01-13T23:56:24.038Z,98904.91
2023-01-13T23:58:52.278Z,98920.72
